createdAt,value
2018-10-12T00:01:30.409Z,99.60
2018-10-12T00:04:04.498Z,99.60
2018-10-12T00:06:38.756Z,99.80
2018-10-12T00:09:13.568Z,99.80
2018-10-12T00:11:47.798Z,99.90
2018-10-12T00:14:21.783Z,99.90
2018-10-12T00:16:55.593Z,99.90
2018-10-12T00:19:30.120Z,99.90
2018-10-12T00:22:04.261Z,99.90
2018-10-12T00:24:39.267Z,99.90
2018-10-12T00:27:13.368Z,99.90
2018-10-12T00:29:48.019Z,99.90
2018-10-12T00:32:21.872Z,99.90
2018-10-12T00:34:55.952Z,99.90
2018-10-12T00:37:30.380Z,99.90
2018-10-12T00:40:05.235Z,99.90
2018-10-12T00:42:39.202Z,99.90
2018-10-12T00:45:13.240Z,99.90
2018-10-12T00:47:52.129Z,99.90
2018-10-12T00:50:26.770Z,99.90
2018-10-12T00:53:01.797Z,99.90
2018-10-12T00:55:37.420Z,99.90
2018-10-12T00:58:11.652Z,99.90
2018-10-12T01:00:45.749Z,99.90
2018-10-12T01:03:19.882Z,99.90
2018-10-12T01:05:54.266Z,99.90
2018-10-12T01:08:28.680Z,99.90
2018-10-12T01:11:02.751Z,99.90
2018-10-12T01:13:36.878Z,99.90
2018-10-12T01:16:11.333Z,99.90
2018-10-12T01:18:46.202Z,99.90
2018-10-12T01:21:20.702Z,99.90
2018-10-12T01:23:54.859Z,99.90
2018-10-12T01:26:28.983Z,99.90
2018-10-12T01:29:03.657Z,99.90
2018-10-12T01:31:37.807Z,99.90
2018-10-12T01:34:12.136Z,99.90
2018-10-12T01:36:46.372Z,99.90
2018-10-12T01:39:21.847Z,99.90
2018-10-12T01:41:56.920Z,99.90
2018-10-12T01:44:30.994Z,99.90
2018-10-12T01:47:05.364Z,99.90
2018-10-12T01:49:39.709Z,99.90
2018-10-12T01:52:14.601Z,99.90
2018-10-12T01:54:49.652Z,99.90
2018-10-12T01:57:24.604Z,99.90
2018-10-12T01:59:58.859Z,99.90
2018-10-12T02:02:32.846Z,99.90
2018-10-12T02:05:07.640Z,99.90
2018-10-12T02:07:42.717Z,99.90
2018-10-12T02:10:17.089Z,99.90
2018-10-12T02:12:51.565Z,99.90
2018-10-12T02:15:25.723Z,99.90
2018-10-12T02:18:00.648Z,99.90
2018-10-12T02:20:37.093Z,99.90
2018-10-12T02:23:11.407Z,99.90
2018-10-12T02:25:45.652Z,99.90
2018-10-12T02:28:20.560Z,99.90
2018-10-12T02:30:55.582Z,99.90
2018-10-12T02:33:29.642Z,99.90
2018-10-12T02:36:04.557Z,99.90
2018-10-12T02:38:38.775Z,99.90
2018-10-12T02:41:13.758Z,99.90
2018-10-12T02:43:48.884Z,99.90
2018-10-12T02:46:22.984Z,99.90
2018-10-12T02:48:57.383Z,99.90
2018-10-12T02:51:31.308Z,99.90
2018-10-12T02:54:05.289Z,99.90
2018-10-12T02:56:39.368Z,99.90
2018-10-12T02:59:14.215Z,99.90
2018-10-12T03:01:48.559Z,99.90
2018-10-12T03:04:22.926Z,99.90
2018-10-12T03:06:56.964Z,99.90
2018-10-12T03:09:31.184Z,99.90
2018-10-12T03:12:05.259Z,99.90
2018-10-12T03:14:39.374Z,99.90
2018-10-12T03:17:13.797Z,99.90
2018-10-12T03:19:47.973Z,99.90
2018-10-12T03:22:22.997Z,99.90
2018-10-12T03:24:57.062Z,99.90
2018-10-12T03:27:36.394Z,99.90
2018-10-12T03:30:10.473Z,99.90
2018-10-12T03:32:44.629Z,99.90
2018-10-12T03:35:19.254Z,99.90
2018-10-12T03:37:53.547Z,99.90
2018-10-12T03:40:27.812Z,99.90
2018-10-12T03:43:01.925Z,99.90
2018-10-12T03:45:36.102Z,99.90
2018-10-12T03:48:10.353Z,99.90
2018-10-12T03:50:44.791Z,99.90
2018-10-12T03:53:19.457Z,99.90
2018-10-12T03:55:53.657Z,99.90
2018-10-12T03:58:28.144Z,99.90
2018-10-12T04:01:02.655Z,99.90
2018-10-12T04:03:36.598Z,99.90
2018-10-12T04:06:11.094Z,99.90
2018-10-12T04:08:45.183Z,99.90
2018-10-12T04:11:19.354Z,99.90
2018-10-12T04:13:54.075Z,99.90
2018-10-12T04:16:28.580Z,99.90
2018-10-12T04:19:03.475Z,99.90
2018-10-12T04:21:38.055Z,99.90
2018-10-12T04:24:12.385Z,99.90
2018-10-12T04:26:46.470Z,99.90
2018-10-12T04:29:21.220Z,99.90
2018-10-12T04:31:55.565Z,99.90
2018-10-12T04:34:29.361Z,99.90
2018-10-12T04:37:04.707Z,99.90
2018-10-12T04:39:56.650Z,99.90
2018-10-12T04:42:31.544Z,99.90
2018-10-12T04:45:06.193Z,99.90
2018-10-12T04:47:40.345Z,99.90
2018-10-12T04:50:14.637Z,99.90
2018-10-12T04:52:49.465Z,99.90
2018-10-12T04:55:23.744Z,99.90
2018-10-12T04:57:57.765Z,99.90
2018-10-12T05:00:32.184Z,99.90
2018-10-12T05:03:07.150Z,99.90
2018-10-12T05:05:41.588Z,99.90
2018-10-12T05:08:15.848Z,99.90
2018-10-12T05:10:49.907Z,99.90
2018-10-12T05:13:24.060Z,99.90
2018-10-12T05:15:58.966Z,99.90
2018-10-12T05:18:33.106Z,99.90
2018-10-12T05:21:08.083Z,99.90
2018-10-12T05:23:42.091Z,99.90
2018-10-12T05:26:16.318Z,99.90
2018-10-12T05:28:50.373Z,99.90
2018-10-12T05:31:24.923Z,99.90
2018-10-12T05:33:58.934Z,99.90
2018-10-12T05:36:34.064Z,99.90
2018-10-12T05:39:09.502Z,99.90
2018-10-12T05:41:44.302Z,99.90
2018-10-12T05:44:18.394Z,99.90
2018-10-12T05:46:52.773Z,99.90
2018-10-12T05:49:38.210Z,99.90
2018-10-12T05:52:13.109Z,99.90
2018-10-12T05:54:48.205Z,99.90
2018-10-12T05:57:22.809Z,99.90
2018-10-12T05:59:56.929Z,99.90
2018-10-12T06:02:31.609Z,99.90
2018-10-12T06:05:06.593Z,99.90
2018-10-12T06:07:40.864Z,99.90
2018-10-12T06:10:16.224Z,99.90
2018-10-12T06:12:51.010Z,99.90
2018-10-12T06:15:25.283Z,99.90
2018-10-12T06:17:59.657Z,99.90
2018-10-12T06:20:33.689Z,99.90
2018-10-12T06:23:07.963Z,99.90
2018-10-12T06:25:42.466Z,99.90
2018-10-12T06:28:17.597Z,99.90
2018-10-12T06:30:51.691Z,99.90
2018-10-12T06:33:25.845Z,99.90
2018-10-12T06:36:00.139Z,99.90
2018-10-12T06:38:35.306Z,99.90
2018-10-12T06:41:09.580Z,99.90
2018-10-12T06:43:43.621Z,99.90
2018-10-12T06:46:17.932Z,99.90
2018-10-12T06:48:52.179Z,99.90
2018-10-12T06:51:26.275Z,99.90
2018-10-12T06:54:00.565Z,99.90
2018-10-12T06:56:34.914Z,99.90
2018-10-12T06:59:10.334Z,99.90
2018-10-12T07:01:44.729Z,99.90
2018-10-12T07:04:19.037Z,99.90
2018-10-12T07:06:53.458Z,99.90
2018-10-12T07:09:27.734Z,99.90
2018-10-12T07:12:01.803Z,99.90
2018-10-12T07:14:36.833Z,99.90
2018-10-12T07:17:11.743Z,99.90
2018-10-12T07:19:45.927Z,99.90
2018-10-12T07:22:20.294Z,99.90
2018-10-12T07:24:54.509Z,99.90
2018-10-12T07:27:28.835Z,99.90
2018-10-12T07:30:02.787Z,99.90
2018-10-12T07:32:38.131Z,99.90
2018-10-12T07:35:13.156Z,99.90
2018-10-12T07:37:47.336Z,99.90
2018-10-12T07:40:26.635Z,99.90
2018-10-12T07:43:01.042Z,99.90
2018-10-12T07:45:35.576Z,99.90
2018-10-12T07:48:09.709Z,99.90
2018-10-12T07:50:43.958Z,99.90
2018-10-12T07:53:18.087Z,99.90
2018-10-12T07:55:52.520Z,99.90
2018-10-12T07:58:26.812Z,99.90
2018-10-12T08:01:01.884Z,99.90
2018-10-12T08:03:36.203Z,99.90
2018-10-12T08:06:10.832Z,99.90
2018-10-12T08:08:45.701Z,99.90
2018-10-12T08:11:25.284Z,99.90
2018-10-12T08:13:59.447Z,99.90
2018-10-12T08:16:33.686Z,99.90
2018-10-12T08:19:11.319Z,99.90
2018-10-12T08:21:45.532Z,99.90
2018-10-12T08:24:19.674Z,99.90
2018-10-12T08:26:54.098Z,99.90
2018-10-12T08:29:29.838Z,99.90
2018-10-12T08:32:03.934Z,98.50
2018-10-12T08:34:38.276Z,97.60
2018-10-12T08:37:12.531Z,95.80
2018-10-12T08:39:47.868Z,94.40
2018-10-12T08:42:22.803Z,93.60
2018-10-12T08:44:57.420Z,92.70
2018-10-12T08:47:31.576Z,92.30
2018-10-12T08:50:05.848Z,91.90
2018-10-12T08:52:40.694Z,91.30
2018-10-12T08:55:14.957Z,90.60
2018-10-12T08:57:49.425Z,90.60
2018-10-12T09:00:23.563Z,89.60
2018-10-12T09:02:57.685Z,88.70
2018-10-12T09:05:31.716Z,87.60
2018-10-12T09:08:05.849Z,87.70
2018-10-12T09:10:40.424Z,87.40
2018-10-12T09:13:14.651Z,86.60
2018-10-12T09:15:49.709Z,86.20
2018-10-12T09:18:23.757Z,86.00
2018-10-12T09:20:57.603Z,85.70
2018-10-12T09:23:32.063Z,85.70
2018-10-12T09:26:06.868Z,85.40
2018-10-12T09:28:40.882Z,85.10
2018-10-12T09:31:15.398Z,83.10
2018-10-12T09:33:49.288Z,82.50
2018-10-12T09:36:23.859Z,82.80
2018-10-12T09:38:57.908Z,82.30
2018-10-12T09:41:32.763Z,82.00
2018-10-12T09:44:07.146Z,81.90
2018-10-12T09:46:41.203Z,81.80
2018-10-12T09:49:16.168Z,81.40
2018-10-12T09:51:50.645Z,81.20
2018-10-12T09:54:24.948Z,81.90
2018-10-12T09:57:04.756Z,81.80
2018-10-12T09:59:38.932Z,82.00
2018-10-12T10:02:18.987Z,81.70
2018-10-12T10:04:52.910Z,82.20
2018-10-12T10:07:30.498Z,82.90
2018-10-12T10:10:05.167Z,81.80
2018-10-12T10:12:39.630Z,82.40
2018-10-12T10:15:13.517Z,82.50
2018-10-12T10:17:47.853Z,81.70
2018-10-12T10:20:22.421Z,81.80
2018-10-12T10:22:56.479Z,81.80
2018-10-12T10:25:30.839Z,81.30
2018-10-12T10:28:05.831Z,81.30
2018-10-12T10:30:40.157Z,81.80
2018-10-12T10:33:14.664Z,81.40
2018-10-12T10:35:48.697Z,81.00
2018-10-12T10:38:23.394Z,79.90
2018-10-12T10:40:57.783Z,80.60
2018-10-12T10:43:32.179Z,79.20
2018-10-12T10:46:07.071Z,78.80
2018-10-12T10:48:41.508Z,78.90
2018-10-12T10:51:15.784Z,78.20
2018-10-12T10:53:50.610Z,78.30
2018-10-12T10:56:24.992Z,77.00
2018-10-12T10:58:59.940Z,77.20
2018-10-12T11:01:34.432Z,77.50
2018-10-12T11:04:09.044Z,77.70
2018-10-12T11:06:43.904Z,77.20
2018-10-12T11:09:18.408Z,76.10
2018-10-12T11:11:53.124Z,75.30
2018-10-12T11:14:27.858Z,75.40
2018-10-12T11:17:01.684Z,75.20
2018-10-12T11:19:36.151Z,75.10
2018-10-12T11:22:10.167Z,74.30
2018-10-12T11:24:44.960Z,73.30
2018-10-12T11:27:19.027Z,73.60
2018-10-12T11:29:53.437Z,74.10
2018-10-12T11:32:27.624Z,73.50
2018-10-12T11:35:01.992Z,72.70
2018-10-12T11:37:36.129Z,73.40
2018-10-12T11:40:10.731Z,71.70
2018-10-12T11:42:56.122Z,70.60
2018-10-12T11:45:30.247Z,70.70
2018-10-12T11:48:04.418Z,70.60
2018-10-12T11:50:38.459Z,70.00
2018-10-12T11:53:13.168Z,70.10
2018-10-12T11:55:48.019Z,68.70
2018-10-12T11:58:23.114Z,68.30
2018-10-12T12:00:57.567Z,67.70
2018-10-12T12:03:31.755Z,67.80
2018-10-12T12:06:07.013Z,68.20
2018-10-12T12:08:41.553Z,67.00
2018-10-12T12:11:16.605Z,67.00
2018-10-12T12:13:51.803Z,65.60
2018-10-12T12:16:26.436Z,65.80
2018-10-12T12:19:00.809Z,65.60
2018-10-12T12:21:35.269Z,65.50
2018-10-12T12:24:09.447Z,64.40
2018-10-12T12:26:44.020Z,65.30
2018-10-12T12:29:17.980Z,62.90
2018-10-12T12:31:52.713Z,63.70
2018-10-12T12:34:27.761Z,63.30
2018-10-12T12:37:02.396Z,62.10
2018-10-12T12:39:36.893Z,62.30
2018-10-12T12:42:10.976Z,62.20
2018-10-12T12:44:45.405Z,62.20
2018-10-12T12:47:19.854Z,62.20
2018-10-12T12:49:57.447Z,61.10
2018-10-12T12:52:31.925Z,60.30
2018-10-12T12:55:06.398Z,59.90
2018-10-12T12:57:40.758Z,60.50
2018-10-12T13:00:15.586Z,59.70
2018-10-12T13:02:49.833Z,59.60
2018-10-12T13:05:24.605Z,58.60
2018-10-12T13:07:58.793Z,58.20
2018-10-12T13:10:33.535Z,57.40
2018-10-12T13:13:07.928Z,57.10
2018-10-12T13:15:42.119Z,56.10
2018-10-12T13:18:16.382Z,56.00
2018-10-12T13:20:50.578Z,54.60
2018-10-12T13:23:24.722Z,55.30
2018-10-12T13:25:58.901Z,54.70
2018-10-12T13:28:33.251Z,54.20
2018-10-12T13:31:07.400Z,54.50
2018-10-12T13:33:43.065Z,54.10
2018-10-12T13:36:17.145Z,52.40
2018-10-12T13:38:51.815Z,51.50
2018-10-12T13:41:25.728Z,51.70
2018-10-12T13:43:59.901Z,50.90
2018-10-12T13:46:35.128Z,49.80
2018-10-12T13:49:09.941Z,50.40
2018-10-12T13:51:44.271Z,49.10
2018-10-12T13:54:18.652Z,50.40
2018-10-12T13:56:58.670Z,50.50
2018-10-12T13:59:33.088Z,50.60
2018-10-12T14:02:07.389Z,49.90
2018-10-12T14:04:41.504Z,50.00
2018-10-12T14:07:15.773Z,49.70
2018-10-12T14:09:50.057Z,50.70
2018-10-12T14:12:25.095Z,50.70
2018-10-12T14:14:59.802Z,50.30
2018-10-12T14:17:35.091Z,49.80
2018-10-12T14:20:09.432Z,49.20
2018-10-12T14:22:45.094Z,49.60
2018-10-12T14:25:19.416Z,48.90
2018-10-12T14:27:54.044Z,48.80
2018-10-12T14:30:28.348Z,48.60
2018-10-12T14:33:02.537Z,49.10
2018-10-12T14:35:36.771Z,49.50
2018-10-12T14:38:11.414Z,50.00
2018-10-12T14:40:45.904Z,50.60
2018-10-12T14:43:20.881Z,51.20
2018-10-12T14:45:55.957Z,53.10
2018-10-12T14:48:30.650Z,52.90
2018-10-12T14:51:04.865Z,53.10
2018-10-12T14:53:40.199Z,52.60
2018-10-12T14:56:15.381Z,52.30
2018-10-12T14:58:49.755Z,52.70
2018-10-12T15:01:24.219Z,53.40
2018-10-12T15:03:58.293Z,53.00
2018-10-12T15:06:32.759Z,53.00
2018-10-12T15:09:09.953Z,53.40
2018-10-12T15:11:44.128Z,53.30
2018-10-12T15:14:27.681Z,53.70
2018-10-12T15:17:02.383Z,54.30
2018-10-12T15:19:36.976Z,53.50
2018-10-12T15:22:12.038Z,53.80
2018-10-12T15:24:46.083Z,54.40
2018-10-12T15:27:20.348Z,54.70
2018-10-12T15:29:55.241Z,54.90
2018-10-12T15:32:29.281Z,55.40
2018-10-12T15:35:03.406Z,55.90
2018-10-12T15:37:38.869Z,56.70
2018-10-12T15:40:13.289Z,57.30
2018-10-12T15:42:49.030Z,57.70
2018-10-12T15:45:23.301Z,58.20
2018-10-12T15:47:57.445Z,58.60
2018-10-12T15:50:31.596Z,58.80
2018-10-12T15:53:05.589Z,59.50
2018-10-12T15:55:40.047Z,59.70
2018-10-12T15:58:14.383Z,60.00
2018-10-12T16:00:49.018Z,60.30
2018-10-12T16:03:23.377Z,60.50
2018-10-12T16:05:57.685Z,61.00
2018-10-12T16:08:32.667Z,61.30
2018-10-12T16:11:06.940Z,61.80
2018-10-12T16:13:41.612Z,62.10
2018-10-12T16:16:15.962Z,62.70
2018-10-12T16:18:50.469Z,63.10
2018-10-12T16:21:25.035Z,63.40
2018-10-12T16:24:07.072Z,63.60
2018-10-12T16:26:41.344Z,63.90
2018-10-12T16:29:16.783Z,64.00
2018-10-12T16:31:51.085Z,64.60
2018-10-12T16:34:25.180Z,65.80
2018-10-12T16:37:00.405Z,65.20
2018-10-12T16:39:34.720Z,65.40
2018-10-12T16:42:09.094Z,65.60
2018-10-12T16:44:43.224Z,66.00
2018-10-12T16:47:17.684Z,66.20
2018-10-12T16:49:51.879Z,66.50
2018-10-12T16:52:25.903Z,67.20
2018-10-12T16:55:00.413Z,67.30
2018-10-12T16:57:36.072Z,67.90
2018-10-12T17:00:10.763Z,67.90
2018-10-12T17:02:45.428Z,68.40
2018-10-12T17:05:19.989Z,68.70
2018-10-12T17:07:55.307Z,69.40
2018-10-12T17:10:30.559Z,69.70
2018-10-12T17:13:05.158Z,70.00
2018-10-12T17:15:39.309Z,70.40
2018-10-12T17:18:17.407Z,70.70
2018-10-12T17:20:51.723Z,70.90
2018-10-12T17:23:25.992Z,71.60
2018-10-12T17:26:00.373Z,71.60
2018-10-12T17:28:35.573Z,71.90
2018-10-12T17:31:10.630Z,72.40
2018-10-12T17:33:44.813Z,72.50
2018-10-12T17:36:19.201Z,73.10
2018-10-12T17:38:53.974Z,73.60
2018-10-12T17:41:28.061Z,73.90
2018-10-12T17:44:02.408Z,73.90
2018-10-12T17:46:36.749Z,75.40
2018-10-12T17:49:11.679Z,75.80
2018-10-12T17:51:45.825Z,76.80
2018-10-12T17:54:20.085Z,77.00
2018-10-12T17:56:54.605Z,78.10
2018-10-12T17:59:29.120Z,79.00
2018-10-12T18:02:03.702Z,79.20
2018-10-12T18:04:38.874Z,80.00
2018-10-12T18:07:13.375Z,81.20
2018-10-12T18:09:48.378Z,81.80
2018-10-12T18:12:23.496Z,82.20
2018-10-12T18:14:57.733Z,83.00
2018-10-12T18:17:31.883Z,83.20
2018-10-12T18:20:06.775Z,83.30
2018-10-12T18:22:41.774Z,83.60
2018-10-12T18:25:16.281Z,83.90
2018-10-12T18:27:51.495Z,83.90
2018-10-12T18:30:25.518Z,84.30
2018-10-12T18:33:00.045Z,84.50
2018-10-12T18:35:34.458Z,84.40
2018-10-12T18:38:09.344Z,84.80
2018-10-12T18:40:43.664Z,85.00
2018-10-12T18:43:18.372Z,85.00
2018-10-12T18:45:52.928Z,85.00
2018-10-12T18:48:27.237Z,85.10
2018-10-12T18:51:01.438Z,85.10
2018-10-12T18:53:35.915Z,85.10
2018-10-12T18:56:10.337Z,85.40
2018-10-12T18:58:44.979Z,85.40
2018-10-12T19:01:19.148Z,85.50
2018-10-12T19:03:54.240Z,85.80
2018-10-12T19:06:28.428Z,85.90
2018-10-12T19:09:03.260Z,86.00
2018-10-12T19:11:38.241Z,86.10
2018-10-12T19:14:12.576Z,86.30
2018-10-12T19:16:47.278Z,86.00
2018-10-12T19:19:21.925Z,86.20
2018-10-12T19:21:56.439Z,86.30
2018-10-12T19:24:31.028Z,86.30
2018-10-12T19:27:05.631Z,86.30
2018-10-12T19:29:41.514Z,87.10
2018-10-12T19:32:15.760Z,86.50
2018-10-12T19:34:50.266Z,86.60
2018-10-12T19:37:24.963Z,86.60
2018-10-12T19:39:59.471Z,86.80
2018-10-12T19:42:33.682Z,87.10
2018-10-12T19:45:08.278Z,87.30
2018-10-12T19:47:42.640Z,87.30
2018-10-12T19:50:17.277Z,87.90
2018-10-12T19:52:51.919Z,87.60
2018-10-12T19:55:26.095Z,87.70
2018-10-12T19:58:00.380Z,87.90
2018-10-12T20:00:34.677Z,87.50
2018-10-12T20:03:08.889Z,88.00
2018-10-12T20:05:43.882Z,88.10
2018-10-12T20:08:18.382Z,88.10
2018-10-12T20:10:52.794Z,88.40
2018-10-12T20:13:27.589Z,88.70
2018-10-12T20:16:01.871Z,88.40
2018-10-12T20:18:36.020Z,89.40
2018-10-12T20:21:10.728Z,89.10
2018-10-12T20:23:44.971Z,89.00
2018-10-12T20:26:19.748Z,89.60
2018-10-12T20:28:54.453Z,89.70
2018-10-12T20:31:28.919Z,90.00
2018-10-12T20:34:03.902Z,89.80
2018-10-12T20:36:38.675Z,89.70
2018-10-12T20:39:13.262Z,89.60
2018-10-12T20:41:48.315Z,89.50
2018-10-12T20:44:22.556Z,89.10
2018-10-12T20:46:57.276Z,89.40
2018-10-12T20:49:31.361Z,88.70
2018-10-12T20:52:06.520Z,88.40
2018-10-12T20:54:41.538Z,88.40
2018-10-12T20:57:16.024Z,88.80
2018-10-12T20:59:50.266Z,88.50
2018-10-12T21:02:24.608Z,89.20
2018-10-12T21:04:59.300Z,88.70
2018-10-12T21:07:34.351Z,88.90
2018-10-12T21:10:08.639Z,88.70
2018-10-12T21:12:43.144Z,88.90
2018-10-12T21:15:17.303Z,88.90
2018-10-12T21:17:51.397Z,88.80
2018-10-12T21:20:25.826Z,89.10
2018-10-12T21:22:59.903Z,89.00
2018-10-12T21:25:34.973Z,89.20
2018-10-12T21:28:09.361Z,89.40
2018-10-12T21:30:44.510Z,89.30
2018-10-12T21:33:18.958Z,89.50
2018-10-12T21:35:53.321Z,89.60
2018-10-12T21:38:28.163Z,89.30
2018-10-12T21:41:02.108Z,89.20
2018-10-12T21:43:36.574Z,89.20
2018-10-12T21:46:11.005Z,89.20
2018-10-12T21:48:46.118Z,89.20
2018-10-12T21:51:21.453Z,89.90
2018-10-12T21:53:56.904Z,89.00
2018-10-12T21:56:31.208Z,89.30
2018-10-12T21:59:06.236Z,89.50
2018-10-12T22:01:43.094Z,89.60
2018-10-12T22:04:17.247Z,89.70
2018-10-12T22:06:51.600Z,89.30
2018-10-12T22:09:26.015Z,89.50
2018-10-12T22:12:01.155Z,89.10
2018-10-12T22:14:35.549Z,89.30
2018-10-12T22:17:10.216Z,89.20
2018-10-12T22:19:47.290Z,89.10
2018-10-12T22:22:21.804Z,88.90
2018-10-12T22:24:56.814Z,88.80
2018-10-12T22:27:31.005Z,89.00
2018-10-12T22:30:06.184Z,89.50
2018-10-12T22:32:40.094Z,89.90
2018-10-12T22:35:15.023Z,90.00
2018-10-12T22:37:49.308Z,90.30
2018-10-12T22:40:24.589Z,90.40
2018-10-12T22:42:58.731Z,90.50
2018-10-12T22:45:32.982Z,90.40
2018-10-12T22:48:07.025Z,90.70
2018-10-12T22:50:41.895Z,90.30
2018-10-12T22:53:15.829Z,90.60
2018-10-12T22:55:49.795Z,90.60
2018-10-12T22:58:23.981Z,90.30
2018-10-12T23:00:58.098Z,90.30
2018-10-12T23:03:33.424Z,90.10
2018-10-12T23:06:08.444Z,90.00
2018-10-12T23:08:43.238Z,90.20
2018-10-12T23:11:17.471Z,90.30
2018-10-12T23:13:51.503Z,90.20
2018-10-12T23:16:25.749Z,90.00
2018-10-12T23:19:00.691Z,90.40
2018-10-12T23:21:35.773Z,90.60
2018-10-12T23:24:09.853Z,90.60
2018-10-12T23:26:43.977Z,90.60
2018-10-12T23:29:19.343Z,90.90
2018-10-12T23:31:53.602Z,90.90
2018-10-12T23:34:28.503Z,91.00
2018-10-12T23:37:03.393Z,91.30
2018-10-12T23:39:37.673Z,91.30
2018-10-12T23:42:12.034Z,91.60
2018-10-12T23:44:46.525Z,91.80
2018-10-12T23:47:21.419Z,92.00
2018-10-12T23:49:55.702Z,92.20
2018-10-12T23:52:30.122Z,92.70
2018-10-12T23:55:04.587Z,93.50
2018-10-12T23:57:38.660Z,93.90
